createdAt,value
2023-01-10T00:00:35.656Z,1.60
2023-01-10T00:03:24.682Z,1.80
2023-01-10T00:05:53.732Z,1.60
2023-01-10T00:08:22.440Z,1.60
2023-01-10T00:10:51.215Z,1.60
2023-01-10T00:13:25.565Z,1.40
2023-01-10T00:15:56.087Z,1.90
2023-01-10T00:18:24.941Z,1.70
2023-01-10T00:20:53.654Z,1.60
2023-01-10T00:23:22.972Z,1.50
2023-01-10T00:25:51.819Z,1.20
2023-01-10T00:28:20.599Z,1.70
2023-01-10T00:31:07.324Z,1.60
2023-01-10T00:33:37.459Z,1.80
2023-01-10T00:36:08.358Z,1.60
2023-01-10T00:38:37.147Z,1.80
2023-01-10T00:41:28.916Z,1.80
2023-01-10T00:46:27.705Z,1.50
2023-01-10T00:48:57.605Z,1.60
2023-01-10T00:51:26.442Z,1.30
2023-01-10T00:53:55.177Z,1.70
2023-01-10T00:56:24.277Z,1.40
2023-01-10T00:58:53.297Z,1.80
2023-01-10T01:01:22.201Z,1.20
2023-01-10T01:03:51.119Z,1.60
2023-01-10T01:09:30.720Z,1.70
2023-01-10T01:11:59.348Z,2.30
2023-01-10T01:14:28.018Z,1.30
2023-01-10T01:16:58.101Z,1.50
2023-01-10T01:19:28.367Z,1.50
2023-01-10T01:21:57.030Z,2.00
2023-01-10T01:24:25.898Z,1.80
2023-01-10T01:26:54.696Z,1.50
2023-01-10T01:29:26.243Z,1.80
2023-01-10T01:35:13.376Z,1.50
2023-01-10T01:37:43.728Z,2.30
2023-01-10T01:40:19.542Z,2.10
2023-01-10T01:42:48.813Z,2.10
2023-01-10T01:45:17.547Z,1.30
2023-01-10T01:48:03.576Z,2.30
2023-01-10T01:50:49.156Z,1.50
2023-01-10T01:53:30.326Z,1.80
2023-01-10T01:56:04.480Z,1.50
2023-01-10T01:59:26.741Z,1.40
2023-01-10T02:02:01.877Z,1.70
2023-01-10T02:04:39.274Z,1.30
2023-01-10T02:07:08.279Z,1.70
2023-01-10T02:09:58.060Z,1.80
2023-01-10T02:12:27.340Z,1.90
2023-01-10T02:14:56.629Z,1.80
2023-01-10T02:17:25.286Z,1.40
2023-01-10T02:20:07.806Z,1.50
2023-01-10T02:23:32.545Z,1.50
2023-01-10T05:18:09.952Z,2.90
2023-01-10T05:20:38.760Z,3.40
2023-01-10T05:23:07.938Z,2.70
2023-01-10T05:25:36.822Z,2.90
2023-01-10T05:28:05.790Z,2.90
2023-01-10T05:30:35.053Z,2.80
2023-01-10T05:33:06.944Z,3.30
2023-01-10T05:35:36.084Z,3.20
2023-01-10T05:38:05.222Z,3.00
2023-01-10T05:40:34.312Z,3.20
2023-01-10T05:43:03.731Z,2.70
2023-01-10T05:45:35.031Z,3.20
2023-01-10T05:48:04.460Z,2.90
2023-01-10T05:50:33.152Z,2.90
2023-01-10T05:53:06.503Z,2.60
2023-01-10T05:55:35.962Z,2.50
2023-01-10T05:58:05.315Z,2.80
2023-01-10T06:00:34.320Z,2.40
2023-01-10T06:03:04.725Z,2.90
2023-01-10T06:05:35.493Z,2.70
2023-01-10T06:08:09.110Z,3.10
2023-01-10T06:10:38.166Z,3.10
2023-01-10T06:13:07.406Z,3.00
2023-01-10T06:15:37.235Z,2.90
2023-01-10T06:18:06.736Z,3.50
2023-01-10T06:20:36.703Z,3.00
2023-01-10T06:23:06.177Z,2.80
2023-01-10T06:25:46.159Z,3.10
2023-01-10T06:28:15.679Z,2.50
2023-01-10T06:30:44.863Z,2.80
2023-01-10T06:33:14.871Z,2.30
2023-01-10T06:35:47.108Z,2.40
2023-01-10T06:38:16.835Z,2.90
2023-01-10T06:40:45.875Z,2.90
2023-01-10T06:43:15.113Z,2.70
2023-01-10T06:45:44.350Z,2.40
2023-01-10T06:48:13.510Z,3.00
2023-01-10T06:50:43.188Z,3.80
2023-01-10T06:53:12.142Z,4.20
2023-01-10T06:55:41.221Z,5.10
2023-01-10T06:58:10.525Z,4.30
2023-01-10T07:00:41.100Z,3.60
2023-01-10T07:03:10.987Z,3.40
2023-01-10T07:05:40.173Z,3.20
2023-01-10T07:08:11.439Z,4.10
2023-01-10T07:10:55.372Z,3.60
2023-01-10T07:13:24.959Z,2.90
2023-01-10T07:16:05.764Z,2.60
2023-01-10T07:18:36.174Z,3.80
2023-01-10T07:21:05.764Z,3.20
2023-01-10T07:24:09.592Z,3.00
2023-01-10T07:26:38.893Z,3.80
2023-01-10T07:29:08.366Z,3.50
2023-01-10T07:31:37.750Z,3.00
2023-01-10T07:34:07.140Z,3.10
2023-01-10T07:36:42.548Z,3.20
2023-01-10T07:39:13.967Z,3.40
2023-01-10T07:41:42.990Z,3.20
2023-01-10T07:44:12.234Z,3.70
2023-01-10T07:46:41.603Z,3.60
2023-01-10T07:49:10.886Z,4.00
2023-01-10T07:51:39.978Z,3.50
2023-01-10T07:54:09.123Z,4.20
2023-01-10T07:56:39.868Z,4.40
2023-01-10T07:59:08.822Z,3.40
2023-01-10T08:01:37.926Z,3.10
2023-01-10T08:04:06.988Z,3.80
2023-01-10T08:06:36.314Z,3.60
2023-01-10T08:09:06.495Z,3.50
2023-01-10T08:11:35.495Z,3.80
2023-01-10T08:14:04.876Z,3.20
2023-01-10T08:16:34.284Z,4.20
2023-01-10T08:19:06.865Z,4.00
2023-01-10T08:21:36.509Z,3.80
2023-01-10T08:24:06.700Z,4.50
2023-01-10T08:26:35.718Z,3.20
2023-01-10T08:29:10.824Z,3.00
2023-01-10T08:31:42.608Z,2.60
2023-01-10T08:34:15.036Z,2.50
2023-01-10T08:36:44.019Z,2.60
2023-01-10T08:39:14.050Z,2.50
2023-01-10T08:41:43.297Z,3.30
2023-01-10T08:44:13.793Z,2.90
2023-01-10T08:46:43.476Z,3.20
2023-01-10T08:49:12.641Z,3.20
2023-01-10T08:51:42.136Z,3.70
2023-01-10T08:54:11.652Z,3.60
2023-01-10T08:56:42.665Z,4.10
2023-01-10T09:02:57.760Z,4.50
2023-01-10T09:05:28.533Z,4.20
2023-01-10T09:08:01.741Z,4.90
2023-01-10T09:10:31.911Z,4.60
2023-01-10T09:13:05.149Z,2.60
2023-01-10T09:15:36.869Z,2.80
2023-01-10T09:18:08.899Z,2.20
2023-01-10T09:20:40.377Z,2.50
2023-01-10T09:25:41.479Z,3.10
2023-01-10T09:28:11.754Z,2.40
2023-01-10T09:33:11.743Z,2.50
2023-01-10T09:35:42.173Z,3.00
2023-01-10T09:38:21.901Z,3.50
2023-01-10T09:41:29.170Z,3.90
2023-01-10T09:44:43.387Z,3.90
2023-01-10T09:47:39.777Z,2.90
2023-01-10T09:50:23.116Z,3.10
2023-01-10T09:53:00.464Z,2.80
2023-01-10T09:55:50.747Z,2.40
2023-01-10T09:58:28.112Z,3.00
2023-01-10T10:01:17.613Z,2.50
2023-01-10T10:03:59.372Z,2.60
2023-01-10T10:06:29.512Z,3.20
2023-01-10T10:09:00.578Z,2.80
2023-01-10T10:11:50.861Z,2.20
2023-01-10T10:14:25.884Z,2.40
2023-01-10T10:17:16.299Z,2.30
2023-01-10T10:20:19.129Z,2.70
2023-01-10T10:23:08.352Z,3.30
2023-01-10T10:26:09.059Z,1.90
2023-01-10T10:28:55.503Z,2.30
2023-01-10T10:31:57.727Z,2.10
2023-01-10T10:34:39.159Z,1.90
2023-01-10T10:37:18.601Z,2.00
2023-01-10T10:40:26.421Z,2.40
2023-01-10T10:42:58.275Z,3.90
2023-01-10T10:45:46.787Z,2.50
2023-01-10T10:48:54.934Z,2.40
2023-01-10T10:51:29.865Z,2.00
2023-01-10T10:53:59.194Z,2.20
2023-01-10T10:56:34.582Z,2.50
2023-01-10T10:59:34.821Z,2.10
2023-01-10T11:02:32.261Z,2.60
2023-01-10T11:05:07.892Z,1.90
2023-01-10T11:07:42.200Z,3.00
2023-01-10T11:10:38.704Z,2.90
2023-01-10T11:13:23.267Z,3.00
2023-01-10T11:16:04.407Z,3.00
2023-01-10T11:18:38.920Z,2.70
2023-01-10T11:21:16.767Z,2.90
2023-01-10T11:23:55.062Z,3.20
2023-01-10T11:41:17.860Z,4.10
2023-01-10T11:44:05.028Z,3.70
2023-01-10T11:46:35.311Z,3.60
2023-01-10T11:49:08.413Z,3.50
2023-01-10T11:51:54.288Z,3.70
2023-01-10T11:54:26.495Z,2.60
2023-01-10T11:57:18.955Z,3.30
2023-01-10T12:00:06.986Z,4.70
2023-01-10T12:02:43.980Z,4.50
2023-01-10T12:21:45.088Z,8.70
2023-01-10T12:24:19.346Z,10.00
2023-01-10T12:26:50.525Z,11.60
2023-01-10T12:29:25.256Z,11.80
2023-01-10T12:31:55.990Z,12.30
2023-01-10T12:34:28.355Z,12.10
2023-01-10T12:37:16.928Z,10.90
2023-01-10T12:39:53.070Z,11.90
2023-01-10T12:43:12.564Z,12.90
2023-01-10T12:45:56.816Z,13.60
2023-01-10T12:49:02.051Z,14.40
2023-01-10T12:51:30.566Z,15.70
2023-01-10T12:54:29.548Z,17.60
2023-01-10T12:57:20.258Z,13.00
2023-01-10T12:59:50.594Z,21.00
2023-01-10T13:02:22.666Z,19.30
2023-01-10T13:04:58.072Z,21.00
2023-01-10T13:07:34.451Z,19.50
2023-01-10T13:10:25.835Z,19.60
2023-01-10T13:13:12.968Z,17.80
2023-01-10T13:15:52.990Z,17.70
2023-01-10T13:18:30.439Z,17.60
2023-01-10T13:21:13.255Z,18.50
2023-01-10T13:23:57.649Z,18.20
2023-01-10T13:26:27.235Z,18.00
2023-01-10T13:29:00.958Z,18.60
2023-01-10T13:31:38.076Z,19.10
2023-01-10T13:38:37.114Z,21.50
2023-01-10T13:45:02.653Z,21.70
2023-01-10T13:59:53.304Z,21.80
2023-01-10T14:21:43.361Z,22.40
2023-01-10T14:27:01.433Z,22.30
2023-01-10T14:29:32.129Z,22.60
2023-01-10T14:32:01.137Z,21.20
2023-01-10T14:34:36.272Z,20.80
2023-01-10T14:37:37.507Z,22.30
2023-01-10T14:40:43.446Z,24.60
2023-01-10T14:43:18.823Z,20.20
2023-01-10T14:45:54.063Z,21.20
2023-01-10T14:48:32.142Z,19.80
2023-01-10T14:51:21.344Z,23.80
2023-01-10T14:54:13.300Z,20.50
2023-01-10T14:56:58.144Z,21.90
2023-01-10T14:59:39.453Z,23.20
2023-01-10T15:02:25.311Z,22.70
2023-01-10T15:05:24.862Z,25.60
2023-01-10T15:07:56.816Z,25.30
2023-01-10T15:10:41.702Z,25.30
2023-01-10T15:14:09.796Z,21.80
2023-01-10T15:16:49.316Z,24.80
2023-01-10T15:19:22.658Z,23.80
2023-01-10T15:21:51.183Z,26.40
2023-01-10T15:24:32.946Z,25.30
2023-01-10T15:27:16.261Z,27.80
2023-01-10T15:29:46.458Z,27.10
2023-01-10T15:32:35.966Z,26.80
2023-01-10T15:35:12.080Z,26.40
2023-01-10T15:37:54.118Z,25.70
2023-01-10T15:43:26.900Z,24.70
2023-01-10T15:46:03.730Z,25.30
2023-01-10T15:48:46.207Z,24.90
2023-01-10T15:51:39.395Z,25.10
2023-01-10T15:54:21.778Z,24.90
2023-01-10T15:57:09.402Z,26.10
2023-01-10T15:59:50.289Z,24.30
2023-01-10T16:02:25.255Z,27.10
2023-01-10T16:05:19.186Z,25.40
2023-01-10T16:07:49.321Z,27.40
2023-01-10T16:16:44.476Z,29.80
2023-01-10T16:19:14.584Z,29.70
2023-01-10T16:21:58.988Z,26.00
2023-01-10T16:34:40.997Z,21.20
2023-01-10T16:40:51.209Z,30.60
2023-01-10T16:43:22.240Z,30.20
2023-01-10T16:46:05.771Z,40.00
2023-01-10T16:51:28.349Z,32.90
2023-01-10T16:54:06.311Z,29.70
2023-01-10T16:56:42.977Z,30.90
2023-01-10T17:00:02.917Z,36.10
2023-01-10T17:02:30.988Z,35.70
2023-01-10T17:04:59.773Z,35.20
2023-01-10T17:07:48.287Z,31.50
2023-01-10T17:10:16.350Z,33.60
2023-01-10T17:12:45.385Z,32.40
2023-01-10T17:15:18.827Z,30.50
2023-01-10T17:22:09.922Z,34.80
2023-01-10T17:24:38.689Z,35.50
2023-01-10T17:27:06.511Z,33.10
2023-01-10T17:32:58.192Z,35.40
2023-01-10T17:36:09.289Z,33.70
2023-01-10T17:42:47.438Z,30.90
2023-01-10T17:45:15.408Z,31.20
2023-01-10T17:47:42.894Z,31.60
2023-01-10T17:50:40.793Z,31.60
2023-01-10T17:53:10.606Z,34.50
2023-01-10T17:55:47.483Z,34.20
2023-01-10T17:58:18.178Z,34.70
2023-01-10T18:00:46.218Z,33.50
2023-01-10T18:03:17.548Z,32.90
2023-01-10T18:09:01.520Z,35.10
2023-01-10T18:11:46.088Z,33.90
2023-01-10T18:14:40.698Z,34.80
2023-01-10T18:20:39.562Z,32.80
2023-01-10T18:29:55.234Z,31.40
2023-01-10T18:39:17.048Z,32.50
2023-01-10T18:41:46.536Z,34.80
2023-01-10T18:44:14.503Z,35.10
2023-01-10T18:47:44.397Z,33.10
2023-01-10T18:50:11.726Z,34.20
2023-01-10T18:56:05.103Z,31.60
2023-01-10T18:58:35.743Z,33.80
2023-01-10T19:01:57.203Z,31.60
2023-01-10T19:04:24.985Z,32.80
2023-01-10T19:06:55.534Z,32.20
2023-01-10T19:09:48.747Z,31.40
2023-01-10T19:22:27.924Z,31.20
2023-01-10T19:25:54.399Z,31.20
2023-01-10T19:28:22.367Z,31.80
2023-01-10T19:31:03.715Z,29.40
2023-01-10T19:33:44.463Z,32.10
2023-01-10T19:36:36.554Z,32.60
2023-01-10T19:39:06.552Z,32.00
2023-01-10T19:41:34.823Z,28.60
2023-01-10T19:44:28.863Z,32.50
2023-01-10T19:46:56.925Z,34.60
2023-01-10T19:49:24.867Z,33.60
2023-01-10T19:55:15.685Z,34.60
2023-01-10T19:57:43.663Z,35.10
2023-01-10T20:00:15.224Z,35.20
2023-01-10T20:03:12.405Z,32.00
2023-01-10T20:05:40.369Z,34.70
2023-01-10T20:08:09.049Z,33.50
2023-01-10T20:10:41.431Z,34.90
2023-01-10T20:13:10.315Z,37.90
2023-01-10T20:15:39.213Z,37.80
2023-01-10T20:18:07.142Z,37.30
2023-01-10T20:21:18.389Z,35.20
2023-01-10T20:23:47.275Z,37.40
2023-01-10T20:29:40.895Z,33.00
2023-01-10T20:34:35.932Z,33.70
2023-01-10T20:37:03.653Z,34.10
2023-01-10T20:40:16.944Z,42.30
2023-01-10T20:42:56.527Z,40.00
2023-01-10T20:48:53.940Z,35.90
2023-01-10T20:55:21.687Z,26.10
2023-01-10T21:01:25.064Z,40.70
2023-01-10T21:03:57.646Z,31.80
2023-01-10T21:07:16.395Z,28.70
2023-01-10T21:09:44.307Z,44.00
2023-01-10T21:12:22.931Z,41.30
2023-01-10T21:14:53.223Z,53.80
2023-01-10T21:17:35.285Z,38.40
2023-01-10T21:20:04.908Z,37.20
2023-01-10T21:22:32.899Z,40.40
2023-01-10T21:28:23.194Z,32.30
2023-01-10T21:34:16.718Z,34.60
2023-01-10T21:36:47.256Z,26.80
2023-01-10T21:39:15.693Z,37.10
2023-01-10T21:42:36.828Z,35.30
2023-01-10T21:45:06.879Z,34.70
2023-01-10T21:47:38.453Z,38.80
2023-01-10T21:50:14.226Z,33.30
2023-01-10T21:52:44.006Z,32.10
2023-01-10T21:55:15.902Z,34.30
2023-01-10T21:57:45.876Z,34.50
2023-01-10T22:03:53.018Z,33.60
2023-01-10T22:06:25.362Z,32.20
2023-01-10T22:08:53.240Z,26.70
2023-01-10T22:11:28.025Z,19.30
2023-01-10T22:14:35.527Z,32.10
2023-01-10T22:17:03.875Z,30.80
2023-01-10T22:26:00.913Z,30.50
2023-01-10T22:28:28.453Z,29.70
2023-01-10T22:34:50.712Z,30.50
2023-01-10T22:37:18.390Z,0.40
2023-01-10T22:39:49.925Z,0.50
2023-01-10T22:42:17.789Z,0.20
2023-01-10T22:44:45.208Z,0.00
2023-01-10T22:47:12.936Z,0.00
2023-01-10T23:03:38.817Z,0.20
2023-01-10T23:06:12.476Z,0.10
2023-01-10T23:08:51.059Z,0.10
2023-01-10T23:11:21.258Z,0.50
2023-01-10T23:13:56.986Z,0.10
2023-01-10T23:19:21.554Z,0.10
2023-01-10T23:22:25.554Z,1.90
2023-01-10T23:25:03.132Z,0.00
2023-01-10T23:27:31.227Z,0.10
2023-01-10T23:30:39.730Z,0.00
2023-01-10T23:33:09.777Z,0.10
2023-01-10T23:35:40.923Z,0.00
2023-01-10T23:41:13.616Z,0.00
2023-01-10T23:43:42.599Z,0.00
2023-01-10T23:46:23.748Z,0.10
2023-01-10T23:48:51.597Z,0.00
2023-01-10T23:51:19.089Z,0.10
2023-01-10T23:53:46.664Z,0.40
2023-01-10T23:56:14.715Z,0.00
2023-01-10T23:58:42.708Z,0.10
